sensor_id;sensor_type;location;lat;lon;timestamp;P1;durP1;ratioP1;P2;durP2;ratioP2
17714;SDS011;8977;50.902;4.314;2022-07-06T00:00:50;3.17;;;2.38;;
17714;SDS011;8977;50.902;4.314;2022-07-06T00:03:17;3.83;;;2.55;;
17714;SDS011;8977;50.902;4.314;2022-07-06T00:05:44;3.58;;;2.80;;
17714;SDS011;8977;50.902;4.314;2022-07-06T00:08:12;5.97;;;2.83;;
17714;SDS011;8977;50.902;4.314;2022-07-06T00:10:39;4.07;;;2.50;;
17714;SDS011;8977;50.902;4.314;2022-07-06T00:13:06;3.38;;;2.33;;
17714;SDS011;8977;50.902;4.314;2022-07-06T00:15:33;3.85;;;2.40;;
17714;SDS011;8977;50.902;4.314;2022-07-06T00:18:00;3.53;;;2.35;;
17714;SDS011;8977;50.902;4.314;2022-07-06T00:20:27;4.55;;;2.65;;
17714;SDS011;8977;50.902;4.314;2022-07-06T00:22:54;4.25;;;2.50;;
17714;SDS011;8977;50.902;4.314;2022-07-06T00:25:22;4.00;;;2.80;;
17714;SDS011;8977;50.902;4.314;2022-07-06T00:27:49;3.97;;;2.97;;
17714;SDS011;8977;50.902;4.314;2022-07-06T00:30:16;4.93;;;2.95;;
17714;SDS011;8977;50.902;4.314;2022-07-06T00:32:43;3.75;;;2.67;;
17714;SDS011;8977;50.902;4.314;2022-07-06T00:35:09;5.35;;;3.05;;
17714;SDS011;8977;50.902;4.314;2022-07-06T00:37:36;5.03;;;3.47;;
17714;SDS011;8977;50.902;4.314;2022-07-06T00:40:04;4.97;;;3.30;;
17714;SDS011;8977;50.902;4.314;2022-07-06T00:42:39;4.47;;;3.15;;
17714;SDS011;8977;50.902;4.314;2022-07-06T00:45:07;3.47;;;3.05;;
17714;SDS011;8977;50.902;4.314;2022-07-06T00:47:35;5.43;;;3.42;;
17714;SDS011;8977;50.902;4.314;2022-07-06T00:50:03;3.80;;;3.25;;
17714;SDS011;8977;50.902;4.314;2022-07-06T00:52:47;4.78;;;3.20;;
17714;SDS011;8977;50.902;4.314;2022-07-06T00:55:16;3.55;;;3.22;;
17714;SDS011;8977;50.902;4.314;2022-07-06T00:57:46;5.10;;;3.30;;
17714;SDS011;8977;50.902;4.314;2022-07-06T01:00:14;10.57;;;3.40;;
17714;SDS011;8977;50.902;4.314;2022-07-06T01:02:42;4.72;;;3.20;;
17714;SDS011;8977;50.902;4.314;2022-07-06T01:05:10;5.28;;;3.40;;
17714;SDS011;8977;50.902;4.314;2022-07-06T01:07:39;4.45;;;3.42;;
17714;SDS011;8977;50.902;4.314;2022-07-06T01:10:08;7.80;;;3.28;;
17714;SDS011;8977;50.902;4.314;2022-07-06T01:12:36;5.03;;;3.20;;
17714;SDS011;8977;50.902;4.314;2022-07-06T01:15:06;3.88;;;3.03;;
17714;SDS011;8977;50.902;4.314;2022-07-06T01:17:35;5.43;;;3.45;;
17714;SDS011;8977;50.902;4.314;2022-07-06T01:20:11;3.67;;;3.03;;
17714;SDS011;8977;50.902;4.314;2022-07-06T01:22:39;6.47;;;4.07;;
17714;SDS011;8977;50.902;4.314;2022-07-06T01:25:06;8.00;;;3.35;;
17714;SDS011;8977;50.902;4.314;2022-07-06T01:27:34;5.25;;;4.00;;
17714;SDS011;8977;50.902;4.314;2022-07-06T01:30:03;5.15;;;3.40;;
17714;SDS011;8977;50.902;4.314;2022-07-06T01:32:31;5.78;;;3.28;;
17714;SDS011;8977;50.902;4.314;2022-07-06T01:34:58;4.97;;;3.13;;
17714;SDS011;8977;50.902;4.314;2022-07-06T01:37:27;5.53;;;3.38;;
17714;SDS011;8977;50.902;4.314;2022-07-06T01:39:57;7.18;;;3.95;;
17714;SDS011;8977;50.902;4.314;2022-07-06T01:42:24;5.35;;;3.88;;
17714;SDS011;8977;50.902;4.314;2022-07-06T01:44:51;5.07;;;3.50;;
17714;SDS011;8977;50.902;4.314;2022-07-06T01:47:18;5.63;;;3.30;;
17714;SDS011;8977;50.902;4.314;2022-07-06T01:49:45;5.57;;;3.30;;
17714;SDS011;8977;50.902;4.314;2022-07-06T01:52:12;4.13;;;3.45;;
17714;SDS011;8977;50.902;4.314;2022-07-06T01:54:40;6.50;;;3.78;;
17714;SDS011;8977;50.902;4.314;2022-07-06T01:57:07;4.60;;;3.47;;
17714;SDS011;8977;50.902;4.314;2022-07-06T01:59:34;4.35;;;3.63;;
17714;SDS011;8977;50.902;4.314;2022-07-06T02:02:01;7.72;;;3.85;;
17714;SDS011;8977;50.902;4.314;2022-07-06T02:04:28;6.85;;;3.42;;
17714;SDS011;8977;50.902;4.314;2022-07-06T02:06:55;5.97;;;3.72;;
17714;SDS011;8977;50.902;4.314;2022-07-06T02:09:22;5.38;;;3.70;;
17714;SDS011;8977;50.902;4.314;2022-07-06T02:11:50;5.60;;;3.78;;
17714;SDS011;8977;50.902;4.314;2022-07-06T02:14:17;7.05;;;3.10;;
17714;SDS011;8977;50.902;4.314;2022-07-06T02:16:44;4.68;;;3.42;;
17714;SDS011;8977;50.902;4.314;2022-07-06T02:19:11;3.22;;;2.92;;
17714;SDS011;8977;50.902;4.314;2022-07-06T02:21:38;3.20;;;2.90;;
17714;SDS011;8977;50.902;4.314;2022-07-06T02:24:05;5.28;;;3.58;;
17714;SDS011;8977;50.902;4.314;2022-07-06T02:26:32;5.38;;;2.95;;
17714;SDS011;8977;50.902;4.314;2022-07-06T02:29:00;5.20;;;3.20;;
17714;SDS011;8977;50.902;4.314;2022-07-06T02:31:27;5.15;;;3.40;;
17714;SDS011;8977;50.902;4.314;2022-07-06T02:33:54;4.43;;;3.05;;
17714;SDS011;8977;50.902;4.314;2022-07-06T02:36:21;5.07;;;3.05;;
17714;SDS011;8977;50.902;4.314;2022-07-06T02:38:48;6.40;;;3.28;;
17714;SDS011;8977;50.902;4.314;2022-07-06T02:41:15;5.68;;;3.13;;
17714;SDS011;8977;50.902;4.314;2022-07-06T02:43:41;5.43;;;3.60;;
17714;SDS011;8977;50.902;4.314;2022-07-06T02:46:10;4.43;;;3.55;;
17714;SDS011;8977;50.902;4.314;2022-07-06T02:48:37;3.65;;;2.70;;
17714;SDS011;8977;50.902;4.314;2022-07-06T02:51:04;5.95;;;3.47;;
17714;SDS011;8977;50.902;4.314;2022-07-06T02:53:31;5.40;;;2.97;;
17714;SDS011;8977;50.902;4.314;2022-07-06T02:55:58;6.78;;;3.15;;
17714;SDS011;8977;50.902;4.314;2022-07-06T02:58:25;5.75;;;3.38;;
17714;SDS011;8977;50.902;4.314;2022-07-06T03:00:51;6.25;;;2.92;;
17714;SDS011;8977;50.902;4.314;2022-07-06T03:03:20;5.82;;;2.97;;
17714;SDS011;8977;50.902;4.314;2022-07-06T03:05:47;3.72;;;3.10;;
17714;SDS011;8977;50.902;4.314;2022-07-06T03:08:14;6.25;;;3.28;;
17714;SDS011;8977;50.902;4.314;2022-07-06T03:10:41;4.82;;;2.65;;
17714;SDS011;8977;50.902;4.314;2022-07-06T03:13:08;3.35;;;3.05;;
17714;SDS011;8977;50.902;4.314;2022-07-06T03:15:35;4.88;;;2.97;;
17714;SDS011;8977;50.902;4.314;2022-07-06T03:18:02;6.00;;;3.10;;
17714;SDS011;8977;50.902;4.314;2022-07-06T03:20:30;3.60;;;3.30;;
17714;SDS011;8977;50.902;4.314;2022-07-06T03:22:57;4.80;;;3.30;;
17714;SDS011;8977;50.902;4.314;2022-07-06T03:25:24;3.95;;;3.08;;
17714;SDS011;8977;50.902;4.314;2022-07-06T03:27:51;3.75;;;3.03;;
17714;SDS011;8977;50.902;4.314;2022-07-06T03:30:18;5.20;;;3.20;;
17714;SDS011;8977;50.902;4.314;2022-07-06T03:32:45;5.20;;;2.85;;
17714;SDS011;8977;50.902;4.314;2022-07-06T03:35:12;5.03;;;2.83;;
17714;SDS011;8977;50.902;4.314;2022-07-06T03:37:40;3.08;;;2.78;;
17714;SDS011;8977;50.902;4.314;2022-07-06T03:40:07;4.40;;;3.15;;
17714;SDS011;8977;50.902;4.314;2022-07-06T03:42:35;3.22;;;2.83;;
17714;SDS011;8977;50.902;4.314;2022-07-06T03:45:02;7.70;;;3.60;;
17714;SDS011;8977;50.902;4.314;2022-07-06T03:47:29;4.03;;;2.65;;
17714;SDS011;8977;50.902;4.314;2022-07-06T03:49:56;5.07;;;2.72;;
17714;SDS011;8977;50.902;4.314;2022-07-06T03:52:23;3.00;;;2.58;;
17714;SDS011;8977;50.902;4.314;2022-07-06T03:54:51;3.40;;;2.60;;
17714;SDS011;8977;50.902;4.314;2022-07-06T03:57:18;4.13;;;2.80;;
17714;SDS011;8977;50.902;4.314;2022-07-06T03:59:46;4.05;;;2.88;;
17714;SDS011;8977;50.902;4.314;2022-07-06T04:02:13;3.38;;;2.83;;
17714;SDS011;8977;50.902;4.314;2022-07-06T04:04:40;5.82;;;2.78;;
17714;SDS011;8977;50.902;4.314;2022-07-06T04:07:07;5.25;;;2.60;;
17714;SDS011;8977;50.902;4.314;2022-07-06T04:09:34;5.28;;;3.15;;
17714;SDS011;8977;50.902;4.314;2022-07-06T04:12:02;3.40;;;3.10;;
17714;SDS011;8977;50.902;4.314;2022-07-06T04:14:30;4.45;;;3.08;;
17714;SDS011;8977;50.902;4.314;2022-07-06T04:16:57;4.53;;;2.97;;
17714;SDS011;8977;50.902;4.314;2022-07-06T04:19:23;5.38;;;2.83;;
17714;SDS011;8977;50.902;4.314;2022-07-06T04:21:50;4.97;;;3.17;;
17714;SDS011;8977;50.902;4.314;2022-07-06T04:24:17;5.82;;;3.20;;
17714;SDS011;8977;50.902;4.314;2022-07-06T04:26:44;5.97;;;3.15;;
17714;SDS011;8977;50.902;4.314;2022-07-06T04:29:12;4.25;;;3.05;;
17714;SDS011;8977;50.902;4.314;2022-07-06T04:31:39;4.15;;;3.17;;
17714;SDS011;8977;50.902;4.314;2022-07-06T04:34:08;5.28;;;3.17;;
17714;SDS011;8977;50.902;4.314;2022-07-06T04:36:35;5.97;;;3.30;;
17714;SDS011;8977;50.902;4.314;2022-07-06T04:39:01;5.05;;;3.58;;
17714;SDS011;8977;50.902;4.314;2022-07-06T04:41:28;7.32;;;3.88;;
17714;SDS011;8977;50.902;4.314;2022-07-06T04:43:55;7.10;;;3.78;;
17714;SDS011;8977;50.902;4.314;2022-07-06T04:46:24;4.05;;;3.30;;
17714;SDS011;8977;50.902;4.314;2022-07-06T04:48:51;5.13;;;3.72;;
17714;SDS011;8977;50.902;4.314;2022-07-06T04:51:17;9.75;;;4.18;;
17714;SDS011;8977;50.902;4.314;2022-07-06T04:53:44;6.75;;;4.68;;
17714;SDS011;8977;50.902;4.314;2022-07-06T04:56:11;8.15;;;4.22;;
17714;SDS011;8977;50.902;4.314;2022-07-06T04:58:38;8.27;;;5.15;;
17714;SDS011;8977;50.902;4.314;2022-07-06T05:01:05;10.38;;;5.13;;
17714;SDS011;8977;50.902;4.314;2022-07-06T05:03:34;7.65;;;4.97;;
17714;SDS011;8977;50.902;4.314;2022-07-06T05:06:04;7.05;;;5.05;;
17714;SDS011;8977;50.902;4.314;2022-07-06T05:08:32;8.75;;;6.13;;
17714;SDS011;8977;50.902;4.314;2022-07-06T05:10:59;6.88;;;5.45;;
17714;SDS011;8977;50.902;4.314;2022-07-06T05:13:26;6.68;;;6.03;;
17714;SDS011;8977;50.902;4.314;2022-07-06T05:15:53;9.85;;;6.20;;
17714;SDS011;8977;50.902;4.314;2022-07-06T05:18:20;10.05;;;6.72;;
17714;SDS011;8977;50.902;4.314;2022-07-06T05:20:48;7.25;;;5.82;;
17714;SDS011;8977;50.902;4.314;2022-07-06T05:23:15;10.70;;;5.75;;
17714;SDS011;8977;50.902;4.314;2022-07-06T05:25:42;10.20;;;6.65;;
17714;SDS011;8977;50.902;4.314;2022-07-06T05:28:09;9.77;;;6.18;;
17714;SDS011;8977;50.902;4.314;2022-07-06T05:30:36;7.40;;;5.82;;
17714;SDS011;8977;50.902;4.314;2022-07-06T05:33:03;8.40;;;6.40;;
17714;SDS011;8977;50.902;4.314;2022-07-06T05:35:30;8.98;;;6.93;;
17714;SDS011;8977;50.902;4.314;2022-07-06T05:37:58;12.73;;;7.53;;
17714;SDS011;8977;50.902;4.314;2022-07-06T05:40:25;7.25;;;6.50;;
17714;SDS011;8977;50.902;4.314;2022-07-06T05:42:52;11.75;;;7.03;;
17714;SDS011;8977;50.902;4.314;2022-07-06T05:45:19;9.93;;;6.97;;
17714;SDS011;8977;50.902;4.314;2022-07-06T05:47:47;9.52;;;6.45;;
17714;SDS011;8977;50.902;4.314;2022-07-06T05:50:31;8.88;;;6.90;;
17714;SDS011;8977;50.902;4.314;2022-07-06T05:53:00;9.25;;;6.50;;
17714;SDS011;8977;50.902;4.314;2022-07-06T05:55:28;12.15;;;6.97;;
17714;SDS011;8977;50.902;4.314;2022-07-06T05:57:55;7.80;;;6.25;;
17714;SDS011;8977;50.902;4.314;2022-07-06T06:00:22;9.27;;;6.68;;
17714;SDS011;8977;50.902;4.314;2022-07-06T06:02:50;8.48;;;6.22;;
17714;SDS011;8977;50.902;4.314;2022-07-06T06:05:17;10.45;;;6.05;;
17714;SDS011;8977;50.902;4.314;2022-07-06T06:07:44;10.27;;;6.75;;
17714;SDS011;8977;50.902;4.314;2022-07-06T06:10:14;9.23;;;6.53;;
17714;SDS011;8977;50.902;4.314;2022-07-06T06:12:41;9.38;;;6.70;;
17714;SDS011;8977;50.902;4.314;2022-07-06T06:15:09;9.15;;;6.55;;
17714;SDS011;8977;50.902;4.314;2022-07-06T06:17:36;9.63;;;6.80;;
17714;SDS011;8977;50.902;4.314;2022-07-06T06:20:04;11.77;;;6.32;;
17714;SDS011;8977;50.902;4.314;2022-07-06T06:22:43;9.80;;;6.55;;
17714;SDS011;8977;50.902;4.314;2022-07-06T06:25:10;10.65;;;5.97;;
17714;SDS011;8977;50.902;4.314;2022-07-06T06:27:38;6.78;;;5.55;;
17714;SDS011;8977;50.902;4.314;2022-07-06T06:30:06;7.97;;;5.68;;
17714;SDS011;8977;50.902;4.314;2022-07-06T06:32:33;8.00;;;5.55;;
17714;SDS011;8977;50.902;4.314;2022-07-06T06:35:00;10.52;;;6.28;;
17714;SDS011;8977;50.902;4.314;2022-07-06T06:37:28;8.55;;;5.85;;
17714;SDS011;8977;50.902;4.314;2022-07-06T06:39:54;7.20;;;5.25;;
17714;SDS011;8977;50.902;4.314;2022-07-06T06:42:21;9.43;;;6.00;;
17714;SDS011;8977;50.902;4.314;2022-07-06T06:44:50;9.63;;;5.60;;
17714;SDS011;8977;50.902;4.314;2022-07-06T06:47:16;10.35;;;5.75;;
17714;SDS011;8977;50.902;4.314;2022-07-06T06:49:44;7.95;;;5.28;;
17714;SDS011;8977;50.902;4.314;2022-07-06T06:52:11;6.65;;;5.30;;
17714;SDS011;8977;50.902;4.314;2022-07-06T06:54:37;5.47;;;4.75;;
17714;SDS011;8977;50.902;4.314;2022-07-06T06:57:04;8.38;;;5.28;;
17714;SDS011;8977;50.902;4.314;2022-07-06T06:59:32;9.98;;;5.40;;
17714;SDS011;8977;50.902;4.314;2022-07-06T07:02:00;8.40;;;5.03;;
17714;SDS011;8977;50.902;4.314;2022-07-06T07:04:27;6.38;;;4.68;;
17714;SDS011;8977;50.902;4.314;2022-07-06T07:06:55;6.75;;;4.68;;
17714;SDS011;8977;50.902;4.314;2022-07-06T07:09:22;5.47;;;4.03;;
17714;SDS011;8977;50.902;4.314;2022-07-06T07:11:50;6.78;;;3.30;;
17714;SDS011;8977;50.902;4.314;2022-07-06T07:14:17;8.45;;;3.97;;
17714;SDS011;8977;50.902;4.314;2022-07-06T07:16:44;5.70;;;3.00;;
17714;SDS011;8977;50.902;4.314;2022-07-06T07:19:12;5.53;;;3.05;;
17714;SDS011;8977;50.902;4.314;2022-07-06T07:21:39;5.53;;;2.72;;
17714;SDS011;8977;50.902;4.314;2022-07-06T07:24:06;4.07;;;2.60;;
17714;SDS011;8977;50.902;4.314;2022-07-06T07:26:33;2.85;;;2.10;;
17714;SDS011;8977;50.902;4.314;2022-07-06T07:29:00;4.28;;;2.00;;
17714;SDS011;8977;50.902;4.314;2022-07-06T07:31:27;4.30;;;2.33;;
17714;SDS011;8977;50.902;4.314;2022-07-06T07:33:54;5.50;;;1.70;;
17714;SDS011;8977;50.902;4.314;2022-07-06T07:36:23;4.68;;;1.88;;
17714;SDS011;8977;50.902;4.314;2022-07-06T07:38:50;2.60;;;1.38;;
17714;SDS011;8977;50.902;4.314;2022-07-06T07:41:17;2.40;;;1.58;;
17714;SDS011;8977;50.902;4.314;2022-07-06T07:43:44;2.42;;;1.55;;
17714;SDS011;8977;50.902;4.314;2022-07-06T07:46:11;3.80;;;1.40;;
17714;SDS011;8977;50.902;4.314;2022-07-06T07:48:38;3.30;;;1.50;;
17714;SDS011;8977;50.902;4.314;2022-07-06T07:51:04;3.33;;;1.73;;
17714;SDS011;8977;50.902;4.314;2022-07-06T07:53:33;7.97;;;2.30;;
17714;SDS011;8977;50.902;4.314;2022-07-06T07:56:00;3.72;;;2.05;;
17714;SDS011;8977;50.902;4.314;2022-07-06T07:58:27;4.38;;;2.22;;
17714;SDS011;8977;50.902;4.314;2022-07-06T08:00:54;4.45;;;1.80;;
17714;SDS011;8977;50.902;4.314;2022-07-06T08:03:21;5.20;;;2.13;;
17714;SDS011;8977;50.902;4.314;2022-07-06T08:05:48;3.83;;;1.60;;
17714;SDS011;8977;50.902;4.314;2022-07-06T08:08:15;5.22;;;2.10;;
17714;SDS011;8977;50.902;4.314;2022-07-06T08:10:45;3.03;;;1.85;;
17714;SDS011;8977;50.902;4.314;2022-07-06T08:13:12;3.58;;;2.05;;
17714;SDS011;8977;50.902;4.314;2022-07-06T08:15:40;2.20;;;1.70;;
17714;SDS011;8977;50.902;4.314;2022-07-06T08:18:07;5.82;;;2.15;;
17714;SDS011;8977;50.902;4.314;2022-07-06T08:20:35;3.33;;;2.03;;
17714;SDS011;8977;50.902;4.314;2022-07-06T08:23:02;2.97;;;2.30;;
17714;SDS011;8977;50.902;4.314;2022-07-06T08:25:29;3.60;;;2.20;;
17714;SDS011;8977;50.902;4.314;2022-07-06T08:27:57;3.75;;;2.38;;
17714;SDS011;8977;50.902;4.314;2022-07-06T08:30:24;5.10;;;2.70;;
17714;SDS011;8977;50.902;4.314;2022-07-06T08:32:51;5.75;;;2.60;;
17714;SDS011;8977;50.902;4.314;2022-07-06T08:35:18;5.78;;;3.03;;
17714;SDS011;8977;50.902;4.314;2022-07-06T08:37:45;5.57;;;3.38;;
17714;SDS011;8977;50.902;4.314;2022-07-06T08:40:11;4.72;;;2.60;;
17714;SDS011;8977;50.902;4.314;2022-07-06T08:42:38;6.40;;;3.05;;
17714;SDS011;8977;50.902;4.314;2022-07-06T08:45:07;5.30;;;2.50;;
17714;SDS011;8977;50.902;4.314;2022-07-06T08:47:35;3.97;;;2.70;;
17714;SDS011;8977;50.902;4.314;2022-07-06T08:50:02;4.65;;;2.83;;
17714;SDS011;8977;50.902;4.314;2022-07-06T08:52:30;7.47;;;3.40;;
17714;SDS011;8977;50.902;4.314;2022-07-06T08:54:58;4.63;;;3.50;;
17714;SDS011;8977;50.902;4.314;2022-07-06T08:57:25;4.15;;;2.63;;
17714;SDS011;8977;50.902;4.314;2022-07-06T08:59:53;5.13;;;3.15;;
17714;SDS011;8977;50.902;4.314;2022-07-06T09:02:21;7.43;;;3.30;;
17714;SDS011;8977;50.902;4.314;2022-07-06T09:04:50;5.78;;;3.15;;
17714;SDS011;8977;50.902;4.314;2022-07-06T09:07:21;9.90;;;3.30;;
17714;SDS011;8977;50.902;4.314;2022-07-06T09:09:49;4.57;;;3.30;;
17714;SDS011;8977;50.902;4.314;2022-07-06T09:12:16;5.88;;;3.33;;
17714;SDS011;8977;50.902;4.314;2022-07-06T09:14:43;6.13;;;2.88;;
17714;SDS011;8977;50.902;4.314;2022-07-06T09:17:11;4.72;;;2.97;;
17714;SDS011;8977;50.902;4.314;2022-07-06T09:19:40;4.22;;;3.00;;
17714;SDS011;8977;50.902;4.314;2022-07-06T09:22:06;3.67;;;2.60;;
17714;SDS011;8977;50.902;4.314;2022-07-06T09:24:34;4.85;;;2.75;;
17714;SDS011;8977;50.902;4.314;2022-07-06T09:27:14;8.85;;;3.33;;
17714;SDS011;8977;50.902;4.314;2022-07-06T09:29:42;4.50;;;2.83;;
17714;SDS011;8977;50.902;4.314;2022-07-06T09:32:09;4.60;;;3.00;;
17714;SDS011;8977;50.902;4.314;2022-07-06T09:34:44;4.78;;;3.22;;
17714;SDS011;8977;50.902;4.314;2022-07-06T09:37:12;9.30;;;3.75;;
17714;SDS011;8977;50.902;4.314;2022-07-06T09:39:40;4.30;;;3.10;;
17714;SDS011;8977;50.902;4.314;2022-07-06T09:42:08;6.82;;;3.10;;
17714;SDS011;8977;50.902;4.314;2022-07-06T09:44:36;4.82;;;3.00;;
17714;SDS011;8977;50.902;4.314;2022-07-06T09:47:04;4.20;;;2.78;;
17714;SDS011;8977;50.902;4.314;2022-07-06T09:49:33;5.15;;;2.88;;
17714;SDS011;8977;50.902;4.314;2022-07-06T09:52:03;3.88;;;3.20;;
17714;SDS011;8977;50.902;4.314;2022-07-06T09:54:31;6.18;;;3.13;;
17714;SDS011;8977;50.902;4.314;2022-07-06T09:56:58;6.03;;;3.85;;
17714;SDS011;8977;50.902;4.314;2022-07-06T09:59:26;5.25;;;3.25;;
17714;SDS011;8977;50.902;4.314;2022-07-06T10:01:55;4.13;;;3.15;;
17714;SDS011;8977;50.902;4.314;2022-07-06T10:04:23;3.40;;;2.45;;
17714;SDS011;8977;50.902;4.314;2022-07-06T10:06:51;5.75;;;2.97;;
17714;SDS011;8977;50.902;4.314;2022-07-06T10:09:21;5.57;;;2.90;;
17714;SDS011;8977;50.902;4.314;2022-07-06T10:11:50;7.28;;;3.20;;
17714;SDS011;8977;50.902;4.314;2022-07-06T10:14:18;4.65;;;2.90;;
17714;SDS011;8977;50.902;4.314;2022-07-06T10:16:47;6.13;;;2.60;;
17714;SDS011;8977;50.902;4.314;2022-07-06T10:19:15;4.53;;;2.00;;
17714;SDS011;8977;50.902;4.314;2022-07-06T10:21:44;4.82;;;3.55;;
17714;SDS011;8977;50.902;4.314;2022-07-06T10:24:11;2.47;;;1.95;;
17714;SDS011;8977;50.902;4.314;2022-07-06T10:26:40;5.10;;;2.42;;
17714;SDS011;8977;50.902;4.314;2022-07-06T10:29:08;4.93;;;3.20;;
17714;SDS011;8977;50.902;4.314;2022-07-06T10:31:35;6.13;;;3.08;;
17714;SDS011;8977;50.902;4.314;2022-07-06T10:34:06;7.57;;;3.15;;
17714;SDS011;8977;50.902;4.314;2022-07-06T10:36:37;5.97;;;3.00;;
17714;SDS011;8977;50.902;4.314;2022-07-06T10:39:04;5.10;;;2.42;;
17714;SDS011;8977;50.902;4.314;2022-07-06T10:41:47;5.15;;;2.40;;
17714;SDS011;8977;50.902;4.314;2022-07-06T10:44:14;5.80;;;2.88;;
17714;SDS011;8977;50.902;4.314;2022-07-06T10:46:41;5.75;;;2.28;;
17714;SDS011;8977;50.902;4.314;2022-07-06T10:49:17;4.70;;;2.35;;
17714;SDS011;8977;50.902;4.314;2022-07-06T10:51:44;15.75;;;4.07;;
17714;SDS011;8977;50.902;4.314;2022-07-06T10:54:10;3.78;;;2.05;;
17714;SDS011;8977;50.902;4.314;2022-07-06T10:56:38;4.20;;;2.00;;
17714;SDS011;8977;50.902;4.314;2022-07-06T10:59:09;5.93;;;2.33;;
17714;SDS011;8977;50.902;4.314;2022-07-06T11:01:37;5.85;;;2.95;;
17714;SDS011;8977;50.902;4.314;2022-07-06T11:04:05;5.68;;;3.08;;
17714;SDS011;8977;50.902;4.314;2022-07-06T11:06:34;3.85;;;2.78;;
17714;SDS011;8977;50.902;4.314;2022-07-06T11:09:03;3.85;;;2.60;;
17714;SDS011;8977;50.902;4.314;2022-07-06T11:11:38;3.55;;;2.13;;
17714;SDS011;8977;50.902;4.314;2022-07-06T11:14:13;5.18;;;2.90;;
17714;SDS011;8977;50.902;4.314;2022-07-06T11:19:27;3.90;;;2.58;;
17714;SDS011;8977;50.902;4.314;2022-07-06T11:21:55;4.85;;;2.30;;
17714;SDS011;8977;50.902;4.314;2022-07-06T11:24:23;8.15;;;2.72;;
17714;SDS011;8977;50.902;4.314;2022-07-06T11:26:52;3.80;;;2.20;;
17714;SDS011;8977;50.902;4.314;2022-07-06T11:29:22;3.63;;;2.55;;
17714;SDS011;8977;50.902;4.314;2022-07-06T11:31:50;5.35;;;2.50;;
17714;SDS011;8977;50.902;4.314;2022-07-06T11:34:18;6.07;;;3.30;;
17714;SDS011;8977;50.902;4.314;2022-07-06T11:36:47;3.17;;;2.10;;
17714;SDS011;8977;50.902;4.314;2022-07-06T11:39:14;3.55;;;2.55;;
17714;SDS011;8977;50.902;4.314;2022-07-06T11:41:42;5.15;;;2.20;;
17714;SDS011;8977;50.902;4.314;2022-07-06T11:44:09;5.45;;;2.80;;
17714;SDS011;8977;50.902;4.314;2022-07-06T11:46:37;8.40;;;3.25;;
17714;SDS011;8977;50.902;4.314;2022-07-06T11:49:05;2.85;;;2.15;;
17714;SDS011;8977;50.902;4.314;2022-07-06T11:51:34;4.00;;;2.28;;
17714;SDS011;8977;50.902;4.314;2022-07-06T11:54:07;8.35;;;2.65;;
17714;SDS011;8977;50.902;4.314;2022-07-06T11:56:35;4.88;;;2.08;;
17714;SDS011;8977;50.902;4.314;2022-07-06T11:59:02;9.43;;;2.35;;
17714;SDS011;8977;50.902;4.314;2022-07-06T12:01:30;3.25;;;1.77;;
17714;SDS011;8977;50.902;4.314;2022-07-06T12:03:59;4.25;;;2.00;;
17714;SDS011;8977;50.902;4.314;2022-07-06T12:06:29;2.47;;;2.08;;
17714;SDS011;8977;50.902;4.314;2022-07-06T12:08:57;2.72;;;1.80;;
17714;SDS011;8977;50.902;4.314;2022-07-06T12:11:26;3.70;;;2.53;;
17714;SDS011;8977;50.902;4.314;2022-07-06T12:13:54;4.95;;;2.15;;
17714;SDS011;8977;50.902;4.314;2022-07-06T12:16:28;4.32;;;2.58;;
17714;SDS011;8977;50.902;4.314;2022-07-06T12:18:56;4.68;;;2.28;;
17714;SDS011;8977;50.902;4.314;2022-07-06T12:21:25;5.00;;;2.30;;
17714;SDS011;8977;50.902;4.314;2022-07-06T12:23:52;4.93;;;1.90;;
17714;SDS011;8977;50.902;4.314;2022-07-06T12:26:21;5.95;;;2.05;;
17714;SDS011;8977;50.902;4.314;2022-07-06T12:28:59;5.30;;;1.85;;
17714;SDS011;8977;50.902;4.314;2022-07-06T12:31:36;6.63;;;2.28;;
17714;SDS011;8977;50.902;4.314;2022-07-06T12:34:11;2.53;;;1.90;;
17714;SDS011;8977;50.902;4.314;2022-07-06T12:36:41;2.55;;;1.77;;
17714;SDS011;8977;50.902;4.314;2022-07-06T12:39:10;5.45;;;2.03;;
17714;SDS011;8977;50.902;4.314;2022-07-06T12:41:37;5.40;;;2.25;;
17714;SDS011;8977;50.902;4.314;2022-07-06T12:44:11;3.55;;;1.85;;
17714;SDS011;8977;50.902;4.314;2022-07-06T12:46:39;7.75;;;2.50;;
17714;SDS011;8977;50.902;4.314;2022-07-06T12:49:15;2.65;;;1.75;;
17714;SDS011;8977;50.902;4.314;2022-07-06T12:51:51;4.80;;;2.28;;
17714;SDS011;8977;50.902;4.314;2022-07-06T12:54:22;4.40;;;2.17;;
17714;SDS011;8977;50.902;4.314;2022-07-06T12:57:07;3.67;;;2.22;;
17714;SDS011;8977;50.902;4.314;2022-07-06T12:59:38;2.10;;;1.70;;
17714;SDS011;8977;50.902;4.314;2022-07-06T13:02:06;4.57;;;2.15;;
17714;SDS011;8977;50.902;4.314;2022-07-06T13:04:37;5.95;;;1.90;;
17714;SDS011;8977;50.902;4.314;2022-07-06T13:07:04;3.90;;;2.10;;
17714;SDS011;8977;50.902;4.314;2022-07-06T13:09:31;3.50;;;1.80;;
17714;SDS011;8977;50.902;4.314;2022-07-06T13:11:58;6.00;;;2.10;;
17714;SDS011;8977;50.902;4.314;2022-07-06T13:14:25;2.75;;;1.50;;
17714;SDS011;8977;50.902;4.314;2022-07-06T13:16:52;3.30;;;1.98;;
17714;SDS011;8977;50.902;4.314;2022-07-06T13:19:20;3.47;;;1.83;;
17714;SDS011;8977;50.902;4.314;2022-07-06T13:21:48;2.85;;;2.20;;
17714;SDS011;8977;50.902;4.314;2022-07-06T13:24:15;3.83;;;2.03;;
17714;SDS011;8977;50.902;4.314;2022-07-06T13:26:42;3.05;;;1.83;;
17714;SDS011;8977;50.902;4.314;2022-07-06T13:29:09;7.15;;;2.20;;
17714;SDS011;8977;50.902;4.314;2022-07-06T13:31:36;4.70;;;2.25;;
17714;SDS011;8977;50.902;4.314;2022-07-06T13:34:04;2.85;;;2.08;;
17714;SDS011;8977;50.902;4.314;2022-07-06T13:36:31;3.60;;;2.00;;
17714;SDS011;8977;50.902;4.314;2022-07-06T13:39:00;3.35;;;1.83;;
17714;SDS011;8977;50.902;4.314;2022-07-06T13:41:27;3.00;;;1.60;;
17714;SDS011;8977;50.902;4.314;2022-07-06T13:43:53;4.53;;;2.28;;
17714;SDS011;8977;50.902;4.314;2022-07-06T13:46:20;2.53;;;1.60;;
17714;SDS011;8977;50.902;4.314;2022-07-06T13:48:47;3.35;;;1.63;;
17714;SDS011;8977;50.902;4.314;2022-07-06T13:51:14;2.58;;;2.08;;
17714;SDS011;8977;50.902;4.314;2022-07-06T13:53:41;2.80;;;1.60;;
17714;SDS011;8977;50.902;4.314;2022-07-06T13:56:09;5.50;;;1.90;;
17714;SDS011;8977;50.902;4.314;2022-07-06T13:58:37;3.20;;;1.67;;
17714;SDS011;8977;50.902;4.314;2022-07-06T14:01:04;3.78;;;1.63;;
17714;SDS011;8977;50.902;4.314;2022-07-06T14:03:31;4.45;;;1.90;;
17714;SDS011;8977;50.902;4.314;2022-07-06T14:05:58;2.92;;;1.50;;
17714;SDS011;8977;50.902;4.314;2022-07-06T14:08:26;2.85;;;1.85;;
17714;SDS011;8977;50.902;4.314;2022-07-06T14:10:54;1.88;;;1.33;;
17714;SDS011;8977;50.902;4.314;2022-07-06T14:13:23;3.10;;;1.80;;
17714;SDS011;8977;50.902;4.314;2022-07-06T14:15:50;2.88;;;1.50;;
17714;SDS011;8977;50.902;4.314;2022-07-06T14:18:16;2.28;;;1.75;;
17714;SDS011;8977;50.902;4.314;2022-07-06T14:20:44;2.50;;;1.70;;
17714;SDS011;8977;50.902;4.314;2022-07-06T14:23:11;5.45;;;1.95;;
17714;SDS011;8977;50.902;4.314;2022-07-06T14:25:38;2.60;;;1.92;;
17714;SDS011;8977;50.902;4.314;2022-07-06T14:28:05;4.90;;;2.35;;
17714;SDS011;8977;50.902;4.314;2022-07-06T14:30:34;4.47;;;2.08;;
17714;SDS011;8977;50.902;4.314;2022-07-06T14:33:03;4.15;;;1.70;;
17714;SDS011;8977;50.902;4.314;2022-07-06T14:35:32;3.60;;;1.80;;
17714;SDS011;8977;50.902;4.314;2022-07-06T14:38:00;4.68;;;1.80;;
17714;SDS011;8977;50.902;4.314;2022-07-06T14:40:27;2.97;;;1.70;;
17714;SDS011;8977;50.902;4.314;2022-07-06T14:42:53;2.50;;;2.10;;
17714;SDS011;8977;50.902;4.314;2022-07-06T14:45:20;3.15;;;1.80;;
17714;SDS011;8977;50.902;4.314;2022-07-06T14:47:48;3.53;;;1.80;;
17714;SDS011;8977;50.902;4.314;2022-07-06T14:50:15;4.68;;;1.92;;
17714;SDS011;8977;50.902;4.314;2022-07-06T14:52:42;2.08;;;1.50;;
17714;SDS011;8977;50.902;4.314;2022-07-06T14:55:09;3.03;;;1.90;;
17714;SDS011;8977;50.902;4.314;2022-07-06T14:57:36;3.13;;;1.92;;
17714;SDS011;8977;50.902;4.314;2022-07-06T15:00:03;2.22;;;2.00;;
17714;SDS011;8977;50.902;4.314;2022-07-06T15:02:31;3.22;;;2.25;;
17714;SDS011;8977;50.902;4.314;2022-07-06T15:04:59;3.30;;;1.80;;
17714;SDS011;8977;50.902;4.314;2022-07-06T15:07:26;4.63;;;1.92;;